Time;durP1;ratioP1;P1;durP2;ratioP2;P2;SDS_P1;SDS_P2;PMS_P1;PMS_P2;Temp;Humidity;BMP_temperature;BMP_pressure;BME280_temperature;BME280_humidity;BME280_pressure;Samples;Min_cycle;Max_cycle;Signal;HPM_P1;HPM_P2
2022/09/29 00:01:15;;;;;;;0.10;0.10;;;9.40;99.90;;;;;;5031234;28;20045;-71
2022/09/29 00:03:41;;;;;;;0.20;0.20;;;9.40;99.90;;;;;;5030145;28;20378;-71
2022/09/29 00:06:16;;;;;;;0.10;0.10;;;9.20;99.90;;;;;;5035315;28;20110;-71
2022/09/29 00:08:42;;;;;;;0.28;0.28;;;9.30;99.90;;;;;;5031561;28;20057;-71
2022/09/29 00:11:09;;;;;;;0.10;0.10;;;9.30;99.90;;;;;;5023501;28;20409;-71
2022/09/29 00:13:35;;;;;;;0.10;0.10;;;9.30;99.90;;;;;;5031803;28;20065;-71
2022/09/29 00:16:01;;;;;;;0.10;0.10;;;9.30;99.90;;;;;;5037806;28;20385;-71
2022/09/29 00:18:29;;;;;;;0.10;0.10;;;9.30;99.90;;;;;;5035135;28;20120;-71
2022/09/29 00:21:00;;;;;;;0.10;0.10;;;9.30;99.90;;;;;;5029827;28;20044;-71
2022/09/29 00:23:27;;;;;;;0.10;0.10;;;9.30;99.90;;;;;;5039901;28;20088;-72
2022/09/29 00:26:09;;;;;;;0.10;0.10;;;9.20;99.90;;;;;;5029271;28;20366;-71
2022/09/29 00:28:36;;;;;;;0.10;0.10;;;9.20;99.90;;;;;;5027916;28;20045;-71
2022/09/29 00:31:04;;;;;;;0.13;0.13;;;9.20;99.90;;;;;;5025157;28;20041;-71
2022/09/29 00:33:30;;;;;;;0.08;0.08;;;9.20;99.90;;;;;;5020806;28;20045;-71
2022/09/29 00:36:01;;;;;;;0.10;0.10;;;9.10;99.90;;;;;;5033291;28;20045;-71
2022/09/29 00:38:28;;;;;;;0.10;0.10;;;9.10;99.90;;;;;;5033539;28;20075;-71
2022/09/29 00:40:54;;;;;;;0.10;0.10;;;9.10;99.90;;;;;;5025343;28;20485;-71
2022/09/29 00:43:45;;;;;;;0.50;0.50;;;9.10;99.90;;;;;;5022654;28;20132;-71
2022/09/29 00:46:12;;;;;;;0.00;0.00;;;9.10;99.90;;;;;;5026488;28;20041;-71
2022/09/29 00:48:38;;;;;;;0.10;0.10;;;9.00;99.90;;;;;;5029789;28;20300;-71
2022/09/29 00:51:05;;;;;;;0.10;0.10;;;8.90;99.90;;;;;;5027235;28;20481;-71
2022/09/29 00:53:31;;;;;;;0.40;0.40;;;8.90;99.90;;;;;;5026956;28;20084;-72
2022/09/29 00:56:05;;;;;;;0.10;0.10;;;8.80;99.90;;;;;;5029054;28;20134;-73
2022/09/29 00:58:39;;;;;;;0.10;0.10;;;8.90;99.90;;;;;;5031635;28;20505;-72
2022/09/29 01:01:05;;;;;;;0.00;0.00;;;8.90;99.90;;;;;;5025001;28;20049;-73
2022/09/29 01:03:36;;;;;;;0.10;0.10;;;9.00;99.90;;;;;;5016170;28;20050;-73
2022/09/29 01:06:27;;;;;;;1.67;1.45;;;8.90;99.90;;;;;;5020606;28;20049;-72
2022/09/29 01:09:15;;;;;;;0.10;0.10;;;8.90;99.90;;;;;;5026232;28;20075;-73
2022/09/29 01:11:41;;;;;;;0.10;0.10;;;8.90;99.90;;;;;;5026920;28;20049;-73
2022/09/29 01:14:09;;;;;;;0.10;0.10;;;8.80;99.90;;;;;;5029138;28;20053;-73
2022/09/29 01:16:36;;;;;;;0.10;0.10;;;8.70;99.90;;;;;;5034567;28;20501;-72
2022/09/29 01:19:06;;;;;;;0.10;0.10;;;8.70;99.90;;;;;;5027925;28;20050;-73
2022/09/29 01:21:54;;;;;;;0.20;0.20;;;8.70;99.90;;;;;;5030527;28;20052;-72
2022/09/29 01:24:41;;;;;;;0.57;0.45;;;8.70;99.90;;;;;;5024903;28;20042;-72
2022/09/29 01:27:15;;;;;;;0.10;0.10;;;8.70;99.90;;;;;;5037247;28;20045;-72
2022/09/29 01:29:54;;;;;;;0.32;0.22;;;8.70;99.90;;;;;;5027334;28;20122;-72
2022/09/29 01:32:27;;;;;;;0.10;0.10;;;8.70;99.90;;;;;;5023463;28;20052;-73
2022/09/29 01:35:17;;;;;;;0.10;0.10;;;8.70;99.90;;;;;;5036388;28;20068;-72
2022/09/29 01:38:06;;;;;;;0.10;0.10;;;8.60;99.90;;;;;;5023982;28;20050;-72
2022/09/29 01:41:04;;;;;;;0.10;0.10;;;8.70;99.90;;;;;;5021742;28;20050;-72
2022/09/29 01:44:10;;;;;;;0.00;0.00;;;8.70;99.90;;;;;;5027410;28;20132;-72
2022/09/29 01:46:42;;;;;;;0.10;0.10;;;8.60;99.90;;;;;;5010331;28;20510;-72
2022/09/29 01:49:09;;;;;;;0.28;0.28;;;8.60;99.90;;;;;;5021618;28;20505;-72
2022/09/29 01:51:44;;;;;;;0.20;0.20;;;8.60;99.90;;;;;;5024918;28;20124;-72
2022/09/29 01:54:34;;;;;;;0.00;0.00;;;8.70;99.90;;;;;;5026333;28;20139;-72
2022/09/29 01:57:07;;;;;;;0.00;0.00;;;8.60;99.90;;;;;;5036558;28;20056;-72
2022/09/29 01:59:54;;;;;;;0.10;0.10;;;8.60;99.90;;;;;;5029803;28;20124;-73
2022/09/29 02:02:29;;;;;;;0.20;0.20;;;8.60;99.90;;;;;;5020950;28;20060;-72
2022/09/29 02:05:00;;;;;;;0.10;0.10;;;8.60;99.90;;;;;;5022743;28;20041;-72
2022/09/29 02:07:36;;;;;;;0.00;0.00;;;8.50;99.90;;;;;;5020549;28;20060;-72
2022/09/29 02:10:09;;;;;;;0.10;0.10;;;8.50;99.90;;;;;;5031064;28;20037;-72
2022/09/29 02:12:39;;;;;;;0.20;0.20;;;8.40;99.90;;;;;;5027659;28;20380;-72
2022/09/29 02:15:08;;;;;;;0.10;0.10;;;8.40;99.90;;;;;;5026803;28;20460;-72
2022/09/29 02:17:38;;;;;;;0.10;0.10;;;8.40;99.90;;;;;;5029286;28;20045;-72
2022/09/29 02:20:04;;;;;;;0.40;0.40;;;8.40;99.90;;;;;;5025057;28;20382;-72
2022/09/29 02:22:31;;;;;;;1.65;1.55;;;8.40;99.90;;;;;;5019871;28;20128;-72
2022/09/29 02:24:58;;;;;;;0.10;0.10;;;8.40;99.90;;;;;;5031645;28;20436;-72
2022/09/29 02:27:26;;;;;;;0.10;0.10;;;8.40;99.90;;;;;;5026990;28;20124;-72
2022/09/29 02:29:52;;;;;;;1.88;0.70;;;8.40;99.90;;;;;;5022488;28;20034;-72
2022/09/29 02:32:18;;;;;;;0.10;0.10;;;8.40;99.90;;;;;;5043526;28;20049;-72
2022/09/29 02:34:47;;;;;;;0.15;0.15;;;8.50;99.90;;;;;;5031396;28;20041;-72
2022/09/29 02:37:22;;;;;;;0.10;0.10;;;8.40;99.90;;;;;;5023971;28;20063;-73
2022/09/29 02:40:09;;;;;;;0.10;0.10;;;8.40;99.90;;;;;;5035631;28;20111;-73
2022/09/29 02:42:37;;;;;;;0.90;0.90;;;8.30;99.90;;;;;;5028285;28;20140;-72
2022/09/29 02:45:21;;;;;;;0.13;0.13;;;8.40;99.90;;;;;;5028329;28;20120;-72
2022/09/29 02:48:07;;;;;;;0.00;0.00;;;8.40;99.90;;;;;;5023356;28;20045;-72
2022/09/29 02:50:47;;;;;;;0.10;0.10;;;8.30;99.90;;;;;;5027515;28;20054;-72
2022/09/29 02:53:22;;;;;;;0.10;0.10;;;8.30;99.90;;;;;;5031093;28;20045;-72
2022/09/29 02:56:02;;;;;;;0.10;0.10;;;8.20;99.90;;;;;;5026375;28;20045;-73
2022/09/29 02:58:39;;;;;;;0.32;0.32;;;8.20;99.90;;;;;;5029515;28;20056;-73
2022/09/29 03:01:06;;;;;;;0.10;0.10;;;8.10;99.90;;;;;;5022234;28;20057;-73
2022/09/29 03:03:32;;;;;;;0.03;0.03;;;8.20;99.90;;;;;;5036845;28;20049;-73
2022/09/29 03:05:57;;;;;;;0.10;0.10;;;8.10;99.90;;;;;;5026275;28;20119;-72
2022/09/29 03:08:23;;;;;;;0.10;0.10;;;8.10;99.90;;;;;;5015944;28;20128;-72
2022/09/29 03:10:49;;;;;;;0.10;0.10;;;8.10;99.90;;;;;;5033836;28;20518;-72
2022/09/29 03:13:14;;;;;;;0.10;0.10;;;8.10;99.90;;;;;;5030492;28;20140;-73
2022/09/29 03:15:40;;;;;;;0.10;0.10;;;8.10;99.90;;;;;;5025540;28;20048;-72
2022/09/29 03:18:06;;;;;;;0.10;0.10;;;8.10;99.90;;;;;;5030527;28;20096;-72
2022/09/29 03:20:31;;;;;;;0.10;0.10;;;8.00;99.90;;;;;;5043597;28;20032;-72
2022/09/29 03:22:57;;;;;;;0.10;0.10;;;8.00;99.90;;;;;;5023520;28;20552;-72
2022/09/29 03:25:23;;;;;;;0.10;0.10;;;8.00;99.90;;;;;;5032743;28;20046;-72
2022/09/29 03:27:50;;;;;;;0.10;0.10;;;8.00;99.90;;;;;;5040763;28;20132;-72
2022/09/29 03:30:16;;;;;;;0.10;0.10;;;8.00;99.90;;;;;;5031417;28;20040;-72
2022/09/29 03:32:42;;;;;;;0.10;0.10;;;8.00;99.90;;;;;;5037745;28;20064;-72
2022/09/29 03:35:08;;;;;;;0.30;0.30;;;7.90;99.90;;;;;;5039521;28;20493;-72
2022/09/29 03:37:34;;;;;;;0.15;0.15;;;7.90;99.90;;;;;;5030587;28;20052;-72
2022/09/29 03:40:00;;;;;;;0.10;0.10;;;8.00;99.90;;;;;;5027645;28;20043;-73
2022/09/29 03:42:27;;;;;;;0.20;0.20;;;8.00;99.90;;;;;;5024803;28;20045;-73
2022/09/29 03:44:53;;;;;;;0.20;0.20;;;8.00;99.90;;;;;;5037611;28;20473;-73
2022/09/29 03:47:19;;;;;;;0.10;0.10;;;7.90;99.90;;;;;;5025353;28;20058;-72
2022/09/29 03:49:44;;;;;;;0.10;0.10;;;7.90;99.90;;;;;;5027386;28;20045;-72
2022/09/29 03:52:10;;;;;;;0.10;0.10;;;7.90;99.90;;;;;;5024943;28;20611;-72
2022/09/29 03:54:35;;;;;;;0.10;0.10;;;7.90;99.90;;;;;;5028441;28;20093;-72
2022/09/29 03:57:01;;;;;;;0.10;0.10;;;7.80;99.90;;;;;;5029504;28;20053;-72
2022/09/29 03:59:26;;;;;;;0.55;0.55;;;7.80;99.90;;;;;;5030425;28;20065;-73
2022/09/29 04:01:52;;;;;;;0.10;0.10;;;7.70;99.90;;;;;;5031776;28;20057;-73
2022/09/29 04:04:17;;;;;;;0.10;0.10;;;7.70;99.90;;;;;;5032139;28;20132;-72
2022/09/29 04:06:44;;;;;;;0.20;0.20;;;7.70;99.90;;;;;;5033247;28;20126;-72
2022/09/29 04:09:10;;;;;;;0.10;0.10;;;7.80;99.90;;;;;;5031737;28;20054;-72
2022/09/29 04:11:35;;;;;;;0.13;0.13;;;7.70;99.90;;;;;;5024279;28;20388;-72
2022/09/29 04:14:01;;;;;;;0.15;0.15;;;7.80;99.90;;;;;;5037890;28;20045;-72
2022/09/29 04:16:27;;;;;;;0.10;0.10;;;7.80;99.90;;;;;;5030340;28;20393;-73
2022/09/29 04:18:52;;;;;;;0.10;0.10;;;7.80;99.90;;;;;;5027714;28;20048;-73
2022/09/29 04:21:18;;;;;;;0.10;0.10;;;7.80;99.90;;;;;;5026082;28;20481;-73
2022/09/29 04:23:44;;;;;;;0.10;0.10;;;7.70;99.90;;;;;;5044189;28;20044;-72
2022/09/29 04:26:10;;;;;;;0.10;0.10;;;7.80;99.90;;;;;;5028619;28;20049;-73
2022/09/29 04:28:37;;;;;;;0.10;0.10;;;7.80;99.90;;;;;;5030024;28;20075;-73
2022/09/29 04:31:03;;;;;;;0.10;0.10;;;7.80;99.90;;;;;;5034980;28;20088;-72
2022/09/29 04:33:30;;;;;;;0.13;0.13;;;7.90;99.90;;;;;;5023552;28;20038;-73
2022/09/29 04:35:56;;;;;;;0.10;0.10;;;7.90;99.90;;;;;;5041748;28;20120;-72
2022/09/29 04:38:21;;;;;;;0.10;0.10;;;7.90;99.90;;;;;;5018663;28;20456;-72
2022/09/29 04:40:47;;;;;;;0.10;0.10;;;8.00;99.90;;;;;;5025216;28;20050;-72
2022/09/29 04:43:14;;;;;;;0.30;0.25;;;7.90;99.90;;;;;;5044572;28;20045;-73
2022/09/29 04:45:39;;;;;;;0.10;0.10;;;7.90;99.90;;;;;;5022673;28;20046;-73
2022/09/29 04:48:05;;;;;;;0.10;0.10;;;7.90;99.90;;;;;;5031110;28;20049;-73
2022/09/29 04:50:31;;;;;;;0.10;0.10;;;7.90;99.90;;;;;;5021056;28;20048;-73
2022/09/29 04:52:56;;;;;;;0.10;0.10;;;7.90;99.90;;;;;;5021934;28;20136;-73
2022/09/29 04:55:22;;;;;;;0.10;0.10;;;7.90;99.90;;;;;;5030776;28;20052;-73
2022/09/29 04:57:48;;;;;;;0.10;0.10;;;7.80;99.90;;;;;;5022547;28;20536;-73
2022/09/29 05:00:14;;;;;;;0.10;0.10;;;7.80;99.90;;;;;;5026143;28;20508;-73
2022/09/29 05:02:40;;;;;;;0.10;0.10;;;7.80;99.90;;;;;;5031108;28;20061;-73
2022/09/29 05:05:07;;;;;;;0.10;0.10;;;7.80;99.90;;;;;;5026460;28;20037;-73
2022/09/29 05:07:36;;;;;;;0.57;0.57;;;7.90;99.90;;;;;;5032220;28;20049;-73
2022/09/29 05:10:03;;;;;;;0.13;0.13;;;7.90;99.90;;;;;;5037009;28;20077;-73
2022/09/29 05:12:29;;;;;;;5.05;0.50;;;7.90;99.90;;;;;;5029243;28;20355;-73
2022/09/29 05:14:55;;;;;;;0.10;0.10;;;7.90;99.90;;;;;;5043805;28;20097;-73
2022/09/29 05:17:20;;;;;;;0.10;0.10;;;7.90;99.90;;;;;;5036716;28;20038;-73
2022/09/29 05:19:46;;;;;;;0.20;0.20;;;8.00;99.90;;;;;;5028352;28;20134;-73
2022/09/29 05:22:11;;;;;;;0.10;0.10;;;8.00;99.90;;;;;;5037232;28;20041;-72
2022/09/29 05:24:37;;;;;;;0.30;0.30;;;8.00;99.90;;;;;;5031529;28;20049;-72
2022/09/29 05:27:03;;;;;;;0.38;0.30;;;8.00;99.90;;;;;;5027499;28;20397;-72
2022/09/29 05:29:28;;;;;;;0.15;0.15;;;8.10;99.90;;;;;;5028398;28;20060;-72
2022/09/29 05:31:54;;;;;;;0.20;0.20;;;8.10;99.90;;;;;;5034453;28;20048;-72
2022/09/29 05:34:19;;;;;;;0.10;0.10;;;8.00;99.90;;;;;;5027474;28;20131;-73
2022/09/29 05:36:45;;;;;;;0.10;0.10;;;8.10;99.90;;;;;;5025571;28;20041;-73
2022/09/29 05:39:11;;;;;;;0.10;0.10;;;8.10;99.90;;;;;;5025916;28;20049;-71
2022/09/29 05:41:37;;;;;;;0.40;0.40;;;8.20;99.90;;;;;;5021303;28;20069;-71
2022/09/29 05:44:03;;;;;;;0.20;0.20;;;8.20;99.90;;;;;;5027342;28;20502;-71
2022/09/29 05:46:29;;;;;;;1.98;1.10;;;8.20;99.90;;;;;;5026562;28;20057;-71
2022/09/29 05:48:54;;;;;;;0.10;0.10;;;8.20;99.90;;;;;;5030214;28;20518;-71
2022/09/29 05:51:22;;;;;;;0.13;0.13;;;8.20;99.90;;;;;;5015831;28;20113;-70
2022/09/29 05:53:49;;;;;;;0.10;0.10;;;8.30;99.90;;;;;;5027255;28;20381;-70
2022/09/29 05:56:21;;;;;;;0.10;0.10;;;8.30;99.90;;;;;;5020186;28;20817;-70
2022/09/29 05:58:47;;;;;;;0.10;0.10;;;8.30;99.90;;;;;;5024959;28;20501;-71
2022/09/29 06:01:15;;;;;;;0.10;0.10;;;8.40;99.90;;;;;;5023938;28;20089;-71
2022/09/29 06:03:41;;;;;;;0.03;0.03;;;8.40;99.90;;;;;;5041637;28;20476;-70
2022/09/29 06:06:12;;;;;;;0.10;0.10;;;8.40;99.90;;;;;;5031169;28;20088;-70
2022/09/29 06:08:38;;;;;;;0.10;0.10;;;8.40;99.90;;;;;;5011254;28;20037;-70
2022/09/29 06:11:06;;;;;;;0.10;0.10;;;8.30;99.90;;;;;;5031714;28;20190;-71
2022/09/29 06:13:32;;;;;;;1.55;1.42;;;8.30;99.90;;;;;;5027581;28;20056;-70
2022/09/29 06:15:59;;;;;;;0.47;0.47;;;8.30;99.90;;;;;;5029418;28;20046;-71
2022/09/29 06:18:25;;;;;;;0.20;0.20;;;8.30;99.90;;;;;;5029482;28;20511;-71
2022/09/29 06:20:50;;;;;;;0.60;0.30;;;8.30;99.90;;;;;;5030190;28;20088;-71
2022/09/29 06:23:16;;;;;;;0.20;0.20;;;8.30;99.90;;;;;;5021737;28;20120;-71
2022/09/29 06:25:41;;;;;;;0.32;0.32;;;8.30;99.90;;;;;;5028970;28;20087;-71
2022/09/29 06:28:07;;;;;;;0.10;0.10;;;8.30;99.90;;;;;;5035117;28;20053;-71
2022/09/29 06:30:32;;;;;;;0.15;0.15;;;8.30;99.90;;;;;;5023116;28;20087;-71
2022/09/29 06:32:58;;;;;;;0.10;0.10;;;8.30;99.90;;;;;;5028982;28;20053;-71
2022/09/29 06:38:08;;;;;;;0.10;0.10;;;8.40;99.90;;;;;;5026274;28;20077;-71
2022/09/29 06:40:33;;;;;;;0.40;0.40;;;8.40;99.90;;;;;;5025252;28;20077;-71
2022/09/29 06:42:59;;;;;;;0.20;0.20;;;8.40;99.90;;;;;;5049079;28;20087;-71
2022/09/29 06:45:24;;;;;;;0.32;0.32;;;8.50;99.90;;;;;;5045538;28;20041;-71
2022/09/29 06:47:56;;;;;;;1.55;0.90;;;8.60;99.90;;;;;;5035839;28;20052;-71
2022/09/29 06:50:21;;;;;;;0.47;0.47;;;8.50;99.90;;;;;;5021668;28;20056;-71
2022/09/29 06:52:49;;;;;;;0.10;0.10;;;8.60;99.90;;;;;;5027085;28;20042;-71
2022/09/29 06:55:14;;;;;;;0.10;0.10;;;8.70;99.90;;;;;;5033135;28;20056;-71
2022/09/29 06:57:40;;;;;;;1.85;1.58;;;8.70;99.90;;;;;;5034072;28;20600;-71
2022/09/29 07:00:07;;;;;;;0.30;0.30;;;8.70;99.90;;;;;;5032999;28;20053;-71
2022/09/29 07:02:32;;;;;;;0.10;0.10;;;8.80;99.90;;;;;;5028618;28;20068;-71
2022/09/29 07:04:58;;;;;;;0.30;0.30;;;8.80;99.90;;;;;;5051717;28;20432;-71
2022/09/29 07:07:23;;;;;;;0.10;0.10;;;8.90;99.90;;;;;;5049890;28;20098;-71
2022/09/29 07:09:49;;;;;;;1.17;1.15;;;8.90;99.90;;;;;;5051887;28;20033;-71
2022/09/29 07:12:15;;;;;;;2.28;1.02;;;8.90;99.90;;;;;;5027899;28;21852;-71
2022/09/29 07:14:40;;;;;;;0.10;0.10;;;8.90;99.90;;;;;;5030702;28;20092;-71
2022/09/29 07:17:06;;;;;;;0.10;0.10;;;9.00;99.90;;;;;;5030914;28;20048;-71
2022/09/29 07:19:32;;;;;;;0.20;0.20;;;8.90;99.90;;;;;;5033569;28;20119;-70
2022/09/29 07:21:57;;;;;;;0.28;0.28;;;9.00;99.90;;;;;;5051208;28;20094;-70
2022/09/29 07:24:23;;;;;;;4.95;1.58;;;9.10;99.90;;;;;;5030857;28;20049;-70
2022/09/29 07:26:49;;;;;;;0.28;0.28;;;9.10;99.90;;;;;;5030696;28;20041;-70
2022/09/29 07:29:15;;;;;;;0.10;0.10;;;9.10;99.90;;;;;;5047351;28;20110;-70
2022/09/29 07:31:41;;;;;;;0.10;0.10;;;9.20;99.90;;;;;;5051371;28;20036;-70
2022/09/29 07:34:07;;;;;;;0.10;0.10;;;9.30;99.90;;;;;;5031140;28;20064;-70
2022/09/29 07:36:32;;;;;;;0.63;0.63;;;9.30;99.90;;;;;;5051080;28;20066;-70
2022/09/29 07:38:58;;;;;;;0.50;0.50;;;9.40;99.90;;;;;;5051472;28;20049;-70
2022/09/29 07:41:24;;;;;;;0.10;0.10;;;9.50;99.90;;;;;;5033960;28;20226;-70
2022/09/29 07:43:50;;;;;;;0.57;0.57;;;9.50;99.90;;;;;;5036414;28;20048;-71
2022/09/29 07:46:15;;;;;;;0.10;0.10;;;9.50;99.90;;;;;;5050047;28;20044;-70
2022/09/29 07:48:42;;;;;;;0.30;0.30;;;9.60;99.90;;;;;;5037898;28;20052;-70
2022/09/29 07:51:16;;;;;;;0.50;0.50;;;9.60;99.90;;;;;;5049994;28;20041;-70
2022/09/29 07:53:42;;;;;;;0.10;0.10;;;9.70;99.90;;;;;;5034787;28;20136;-70
2022/09/29 07:56:20;;;;;;;0.50;0.50;;;9.70;99.90;;;;;;5047454;28;20084;-71
2022/09/29 07:58:48;;;;;;;0.10;0.10;;;9.80;99.90;;;;;;5051152;28;20041;-70
2022/09/29 08:01:15;;;;;;;0.10;0.10;;;9.80;99.90;;;;;;5047667;28;20061;-71
2022/09/29 08:03:42;;;;;;;0.30;0.30;;;9.80;99.90;;;;;;5047656;28;20041;-70
2022/09/29 08:06:10;;;;;;;0.10;0.10;;;9.90;99.90;;;;;;5051850;28;20055;-71
2022/09/29 08:08:37;;;;;;;0.15;0.15;;;9.90;99.90;;;;;;5037436;28;20084;-70
2022/09/29 08:11:12;;;;;;;0.25;0.25;;;9.90;99.90;;;;;;5026527;28;20126;-71
2022/09/29 08:13:38;;;;;;;0.10;0.10;;;10.00;99.90;;;;;;5048762;28;20053;-70
2022/09/29 08:16:06;;;;;;;0.45;0.45;;;10.20;99.90;;;;;;5045499;28;20145;-71
2022/09/29 08:18:33;;;;;;;0.10;0.10;;;10.80;99.90;;;;;;5039446;28;20124;-71
2022/09/29 08:20:59;;;;;;;0.40;0.40;;;10.60;99.90;;;;;;5032252;28;20088;-71
2022/09/29 08:23:25;;;;;;;0.47;0.47;;;10.60;99.90;;;;;;5027521;28;20501;-71
2022/09/29 08:26:01;;;;;;;9.43;2.08;;;10.70;99.90;;;;;;5050363;28;20052;-71
2022/09/29 08:28:28;;;;;;;0.10;0.10;;;11.00;99.90;;;;;;5052232;28;20068;-71
2022/09/29 08:30:53;;;;;;;0.13;0.13;;;11.30;99.90;;;;;;5043195;28;20076;-71
2022/09/29 08:33:19;;;;;;;0.10;0.10;;;12.10;99.90;;;;;;5028865;28;20131;-71
2022/09/29 08:35:45;;;;;;;0.10;0.10;;;12.00;99.90;;;;;;5035566;28;20099;-72
2022/09/29 08:38:10;;;;;;;0.08;0.08;;;12.60;99.90;;;;;;5018985;28;20050;-71
2022/09/29 08:40:37;;;;;;;0.10;0.10;;;13.10;99.90;;;;;;5026709;28;20069;-71
2022/09/29 08:43:32;;;;;;;0.10;0.10;;;13.30;99.90;;;;;;5045040;28;20045;-71
2022/09/29 08:46:01;;;;;;;0.10;0.10;;;13.40;99.90;;;;;;5049251;28;20501;-72
2022/09/29 08:48:30;;;;;;;0.00;0.00;;;13.30;99.90;;;;;;5046829;28;20056;-72
2022/09/29 08:50:59;;;;;;;0.10;0.10;;;13.20;99.90;;;;;;5042698;28;20106;-72
2022/09/29 08:53:27;;;;;;;0.10;0.10;;;13.10;99.90;;;;;;5033966;28;20107;-72
2022/09/29 08:56:05;;;;;;;0.03;0.03;;;13.00;99.90;;;;;;5034848;28;20046;-73
2022/09/29 08:58:32;;;;;;;0.00;0.00;;;12.90;99.90;;;;;;5021066;28;20053;-73
2022/09/29 09:01:25;;;;;;;0.43;0.28;;;12.70;99.90;;;;;;5036862;28;20118;-73
2022/09/29 09:04:22;;;;;;;0.10;0.10;;;12.70;99.90;;;;;;5018348;28;20680;-72
2022/09/29 09:07:15;;;;;;;0.57;0.57;;;12.60;99.90;;;;;;5012137;28;20049;-73
2022/09/29 09:09:55;;;;;;;0.00;0.00;;;12.60;99.90;;;;;;5030719;28;20041;-72
2022/09/29 09:12:45;;;;;;;0.10;0.10;;;12.70;99.90;;;;;;5029651;28;20394;-72
2022/09/29 09:15:44;;;;;;;0.10;0.10;;;13.50;99.90;;;;;;5028793;28;20518;-72
2022/09/29 09:18:36;;;;;;;0.10;0.10;;;14.30;99.90;;;;;;5032070;28;20132;-71
2022/09/29 09:21:10;;;;;;;0.20;0.20;;;15.10;99.90;;;;;;5049492;28;20095;-72
2022/09/29 09:23:53;;;;;;;0.10;0.10;;;15.90;99.90;;;;;;5044715;28;20076;-72
2022/09/29 09:26:40;;;;;;;0.30;0.30;;;16.40;99.90;;;;;;5049674;28;20049;-72
2022/09/29 09:29:21;;;;;;;0.20;0.20;;;16.90;99.90;;;;;;5045545;28;20561;-72
2022/09/29 09:31:56;;;;;;;0.10;0.10;;;17.30;99.90;;;;;;5031608;28;20042;-72
2022/09/29 09:34:49;;;;;;;0.10;0.10;;;17.50;99.90;;;;;;5030733;28;20060;-72
2022/09/29 09:37:25;;;;;;;0.50;0.50;;;17.90;99.90;;;;;;5034577;28;20045;-72
2022/09/29 09:39:54;;;;;;;0.10;0.10;;;18.10;99.90;;;;;;5047549;28;20105;-72
2022/09/29 09:42:25;;;;;;;0.10;0.10;;;18.30;99.90;;;;;;5028791;28;20489;-72
2022/09/29 09:45:06;;;;;;;0.10;0.10;;;18.30;99.90;;;;;;5021446;28;20056;-72
2022/09/29 09:47:45;;;;;;;0.28;0.28;;;18.40;99.90;;;;;;5030510;28;20037;-72
2022/09/29 09:50:16;;;;;;;0.40;0.40;;;18.50;99.90;;;;;;5026664;28;20049;-72
2022/09/29 09:52:54;;;;;;;0.10;0.10;;;18.40;99.90;;;;;;5032054;28;20088;-73
2022/09/29 09:55:23;;;;;;;0.10;0.10;;;17.70;99.90;;;;;;5038336;28;20507;-72
2022/09/29 09:58:00;;;;;;;0.00;0.00;;;17.70;99.90;;;;;;5048971;28;20041;-72
2022/09/29 10:00:33;;;;;;;0.10;0.10;;;17.60;99.90;;;;;;5050585;28;20123;-72
2022/09/29 10:03:03;;;;;;;0.10;0.10;;;17.50;99.90;;;;;;5028638;28;20183;-72
2022/09/29 10:05:38;;;;;;;0.30;0.30;;;17.70;99.90;;;;;;5048834;28;20127;-72
2022/09/29 10:08:22;;;;;;;0.52;0.52;;;17.60;99.90;;;;;;5050425;28;20041;-72
2022/09/29 10:10:47;;;;;;;;;;;17.70;99.90;;;;;;5043681;28;20044;-72
2022/09/29 10:13:14;;;;;;;0.10;0.10;;;17.70;99.90;;;;;;5024267;28;19925;-72
2022/09/29 10:15:45;;;;;;;0.20;0.20;;;17.60;99.90;;;;;;5029455;28;20401;-72
2022/09/29 10:18:16;;;;;;;0.10;0.10;;;17.50;99.90;;;;;;5028325;28;20037;-73
2022/09/29 10:20:42;;;;;;;0.10;0.10;;;17.40;99.90;;;;;;5030481;28;20135;-73
2022/09/29 10:23:21;;;;;;;0.00;0.00;;;17.40;99.90;;;;;;5043249;28;20133;-73
2022/09/29 10:25:57;;;;;;;0.10;0.10;;;17.30;99.90;;;;;;5050028;28;20080;-72
2022/09/29 10:28:25;;;;;;;0.00;0.00;;;17.30;99.90;;;;;;5037894;28;20076;-72
2022/09/29 10:30:53;;;;;;;4.47;0.52;;;17.40;99.90;;;;;;5047316;28;20080;-72
2022/09/29 10:33:22;;;;;;;0.10;0.10;;;17.40;99.90;;;;;;5049083;28;20045;-73
2022/09/29 10:35:51;;;;;;;0.10;0.10;;;17.40;99.90;;;;;;5046394;28;20033;-73
2022/09/29 10:38:24;;;;;;;0.10;0.10;;;17.50;99.90;;;;;;5045840;28;20053;-73
2022/09/29 10:40:56;;;;;;;;;;;17.50;99.90;;;;;;5029297;28;20489;-73
2022/09/29 10:43:25;;;;;;;0.00;0.00;;;17.30;99.90;;;;;;5029600;28;19924;-73
2022/09/29 10:45:57;;;;;;;0.10;0.10;;;17.50;99.90;;;;;;5049936;28;20060;-73
2022/09/29 10:48:24;;;;;;;0.00;0.00;;;17.40;99.90;;;;;;5042329;28;20505;-74
2022/09/29 10:50:52;;;;;;;0.00;0.00;;;17.00;99.90;;;;;;5029954;28;20042;-73
2022/09/29 10:53:34;;;;;;;0.10;0.10;;;17.10;99.90;;;;;;5039906;28;20057;-73
2022/09/29 10:56:07;;;;;;;0.10;0.10;;;17.00;99.90;;;;;;5015904;28;20037;-73
2022/09/29 10:58:41;;;;;;;0.10;0.10;;;16.70;99.90;;;;;;5030685;28;20068;-73
2022/09/29 11:01:17;;;;;;;0.00;0.00;;;16.90;99.90;;;;;;5028595;28;20045;-73
2022/09/29 11:04:05;;;;;;;0.00;0.00;;;17.20;99.90;;;;;;5050254;28;20404;-73
2022/09/29 11:06:37;;;;;;;0.00;0.00;;;17.40;99.90;;;;;;5049958;28;20131;-73
2022/09/29 11:09:06;;;;;;;0.00;0.00;;;17.70;99.90;;;;;;5049857;28;20503;-73
2022/09/29 11:11:58;;;;;;;0.10;0.10;;;18.10;99.90;;;;;;5029847;28;20047;-73
2022/09/29 11:14:25;;;;;;;0.00;0.00;;;18.10;99.90;;;;;;5037937;28;20525;-73
2022/09/29 11:16:57;;;;;;;0.10;0.10;;;18.50;99.90;;;;;;5026713;28;20363;-72
2022/09/29 11:19:23;;;;;;;0.05;0.05;;;18.60;99.90;;;;;;5025307;28;20127;-72
2022/09/29 11:21:54;;;;;;;0.10;0.10;;;19.00;99.90;;;;;;5032828;28;20447;-73
2022/09/29 11:24:50;;;;;;;0.00;0.00;;;19.30;99.90;;;;;;5023874;28;20053;-73
2022/09/29 11:27:43;;;;;;;0.00;0.00;;;19.20;99.90;;;;;;5031132;28;20045;-72
2022/09/29 11:30:14;;;;;;;0.00;0.00;;;19.40;99.90;;;;;;5026282;28;20085;-72
2022/09/29 11:33:13;;;;;;;0.32;0.20;;;19.70;99.90;;;;;;5027348;28;20060;-73
2022/09/29 11:35:52;;;;;;;0.00;0.00;;;19.20;99.90;;;;;;5031548;28;20043;-72
2022/09/29 11:38:37;;;;;;;0.00;0.00;;;18.60;99.90;;;;;;5032840;28;20045;-74
2022/09/29 11:41:15;;;;;;;0.00;0.00;;;18.20;99.90;;;;;;5034081;28;20052;-73
2022/09/29 11:43:54;;;;;;;0.00;0.00;;;17.90;99.90;;;;;;5021327;28;20045;-72
2022/09/29 11:46:53;;;;;;;0.10;0.10;;;17.60;99.90;;;;;;5030764;28;20064;-72
2022/09/29 11:49:57;;;;;;;0.00;0.00;;;17.30;99.90;;;;;;5043061;28;20063;-72
2022/09/29 11:52:51;;;;;;;0.00;0.00;;;17.30;99.90;;;;;;5046175;28;20966;-72
2022/09/29 11:55:46;;;;;;;0.00;0.00;;;17.10;99.90;;;;;;5025899;28;20451;-72
2022/09/29 11:58:23;;;;;;;0.00;0.00;;;17.00;99.90;;;;;;5012994;28;20103;-71
2022/09/29 12:01:20;;;;;;;0.00;0.00;;;16.90;99.90;;;;;;5023794;28;20048;-72
2022/09/29 12:04:14;;;;;;;0.08;0.08;;;16.90;99.90;;;;;;5044180;28;20049;-71
2022/09/29 12:06:53;;;;;;;0.03;0.03;;;16.90;99.90;;;;;;5040151;28;20041;-72
2022/09/29 12:09:37;;;;;;;0.10;0.10;;;17.00;99.90;;;;;;5030794;28;20054;-71
2022/09/29 12:12:06;;;;;;;;;;;17.00;99.90;;;;;;5042834;28;20378;-71
2022/09/29 12:14:56;;;;;;;0.05;0.05;;;17.00;99.90;;;;;;5039985;28;19932;-71
2022/09/29 12:17:30;;;;;;;0.00;0.00;;;17.60;99.90;;;;;;5030778;28;20057;-71
2022/09/29 12:20:23;;;;;;;0.00;0.00;;;17.90;99.90;;;;;;5013106;28;20485;-71
2022/09/29 12:22:52;;;;;;;0.00;0.00;;;18.00;99.90;;;;;;5029330;28;20136;-71
2022/09/29 12:25:24;;;;;;;0.00;0.00;;;18.30;99.90;;;;;;5031128;28;20065;-71
2022/09/29 12:27:53;;;;;;;0.10;0.10;;;18.70;99.90;;;;;;5032780;28;20122;-71
2022/09/29 12:30:29;;;;;;;0.00;0.00;;;19.10;99.90;;;;;;5028768;28;20058;-72
2022/09/29 12:33:20;;;;;;;0.00;0.00;;;18.80;99.90;;;;;;5031941;28;20061;-71
2022/09/29 12:36:01;;;;;;;0.00;0.00;;;19.00;99.90;;;;;;5034967;28;20037;-71
2022/09/29 12:38:29;;;;;;;0.00;0.00;;;18.60;99.90;;;;;;5051106;28;20120;-71
2022/09/29 12:41:20;;;;;;;0.00;0.00;;;18.40;99.90;;;;;;5041052;28;20040;-71
2022/09/29 12:44:16;;;;;;;0.00;0.00;;;18.40;99.90;;;;;;5033085;28;20116;-71
2022/09/29 12:46:52;;;;;;;0.00;0.00;;;17.90;99.90;;;;;;5024660;28;20456;-71
2022/09/29 12:49:23;;;;;;;0.00;0.00;;;18.70;99.90;;;;;;5030696;28;20053;-72
2022/09/29 12:51:50;;;;;;;0.00;0.00;;;19.30;99.90;;;;;;5030713;28;20456;-72
2022/09/29 12:54:38;;;;;;;0.00;0.00;;;20.00;99.90;;;;;;5040225;28;20370;-73
2022/09/29 12:57:13;;;;;;;0.00;0.00;;;20.60;99.90;;;;;;5051577;28;20124;-73
2022/09/29 12:59:54;;;;;;;0.00;0.00;;;20.80;99.90;;;;;;5030862;28;20049;-73
2022/09/29 13:02:42;;;;;;;0.00;0.00;;;20.60;99.90;;;;;;5049957;28;20051;-72
2022/09/29 13:05:10;;;;;;;0.00;0.00;;;20.90;99.90;;;;;;5039963;28;20057;-73
2022/09/29 13:07:51;;;;;;;0.00;0.00;;;21.20;99.90;;;;;;5030373;28;20065;-73
2022/09/29 13:10:38;;;;;;;0.00;0.00;;;21.50;99.90;;;;;;5030921;28;20045;-73
2022/09/29 13:13:09;;;;;;;0.03;0.03;;;21.30;99.90;;;;;;5036375;28;20480;-73
2022/09/29 13:16:02;;;;;;;0.00;0.00;;;20.10;99.90;;;;;;5041704;28;20110;-71
2022/09/29 13:19:07;;;;;;;0.00;0.00;;;19.50;99.90;;;;;;5030849;28;20045;-71
2022/09/29 13:21:47;;;;;;;0.00;0.00;;;18.80;99.90;;;;;;5050906;28;20058;-71